D/T METAR WX W/DIR W/SPE G/SPE TEMP DEWP
19/03/19 02:50 EGVP 190250Z AUTO 27007KT 8000 // BKN003/// BKN090/// 06/06 Q1025 W (270°) 8.1mph 6°C 6°C
19/03/19 01:50 EGVP 190150Z AUTO 28003KT 9999 // BKN090/// 06/05 Q1025 W (280°) 3.5mph 6°C 5°C
19/03/19 00:50 EGVP 190050Z AUTO 26006KT 9999 // BKN080/// 06/05 Q1025 W (260°) 6.9mph 6°C 5°C
18/03/19 23:50 EGVP 182350Z 28004KT 9999 SCT036 06/05 Q1024 BLU TEMPO SCT010 GRN W (280°) 4.6mph 6°C 5°C
18/03/19 22:50 EGVP 182250Z 28005KT 9999 BKN037 BKN090 07/06 Q1024 BLU TEMPO SCT012 GRN W (280°) 5.8mph 7°C 6°C
18/03/19 21:50 EGVP 182150Z 27005KT 9999 BKN036 07/06 Q1024 BLU TEMPO SCT014 GRN W (270°) 5.8mph 7°C 6°C
18/03/19 20:50 EGVP 182050Z 27007KT 9999 BKN038 08/06 Q1024 BLU TEMPO SCT014 GRN W (270°) 8.1mph 8°C 6°C
18/03/19 19:50 EGVP 181950Z 27005KT 9999 BKN036 08/06 Q1023 BLU TEMPO SCT014 GRN W (270°) 5.8mph 8°C 6°C
18/03/19 18:50 EGVP 181850Z 27006KT 9999 FEW016 BKN035 BKN070 08/06 Q1023 BLU BECMG SCT015 WHT W (270°) 6.9mph 8°C 6°C
18/03/19 17:50 EGVP 181750Z 27005KT 9999 FEW018 BKN070 08/05 Q1022 BLU BECMG SCT018 WHT W (270°) 5.8mph 8°C 5°C
18/03/19 16:50 EGVP 181650Z 28009KT 9999 FEW018 BKN060 08/05 Q1022 BLU BECMG SCT018 WHT W (280°) 10.4mph 8°C 5°C
18/03/19 15:50 EGVP 181550Z 28010KT 9999 FEW022 SCT042 BKN080 09/05 Q1021 BLU BECMG SCT022 WHT W (280°) 11.5mph 9°C 5°C
18/03/19 15:27 EGVP 181527Z 28010KT 9999 -SHRA FEW021 BKN035 09/05 Q1021 BLU BECMG SCT022 WHT -SHRA W (280°) 11.5mph 9°C 5°C
18/03/19 14:50 EGVP 181450Z 29008KT 9999 SCT021 SCT050 BKN070 09/05 Q1021 WHT TEMPO SCT015 BLU WNW (290°) 9.2mph 9°C 5°C
18/03/19 14:26 EGVP 181426Z 27010KT 9999 -SHRA SCT021 BKN035 BKN070 09/04 Q1021 WHT TEMPO SCT025 BLU -SHRA W (270°) 11.5mph 9°C 4°C
18/03/19 13:50 EGVP 181350Z 29012KT 9999 SCT033 BKN060 BKN110 09/04 Q1021 BLU NOSIG WNW (290°) 13.8mph 9°C 4°C
18/03/19 12:50 EGVP 181250Z 27012KT 9999 FEW023 BKN080 BKN120 09/04 Q1021 BLU TEMPO 7000 SHRA SCT022 WHT W (270°) 13.8mph 9°C 4°C
18/03/19 11:50 EGVP 181150Z 29010KT 9999 -SHRA FEW030TCU BKN045 BKN080 08/04 Q1021 BLU TEMPO 7000 SHRA SCT022 WHT -SHRA WNW (290°) 11.5mph 8°C 4°C
18/03/19 10:50 EGVP 181050Z 28010KT 9999 SCT030 BKN080 BKN160 09/03 Q1021 BLU TEMPO 7000 SHRA SCT022 WHT W (280°) 11.5mph 9°C 3°C
18/03/19 09:50 EGVP 180950Z 28009KT 9999 FEW020 SCT160 09/04 Q1021 BLU TEMPO SCT022 WHT W (280°) 10.4mph 9°C 4°C
18/03/19 08:50 EGVP 180850Z 28008KT 9999 FEW012 SCT110 07/04 Q1020 BLU TEMPO SCT018 WHT W (280°) 9.2mph 7°C 4°C
18/03/19 07:50 EGVP 180750Z 27006KT CAVOK 05/03 Q1020 BLU TEMPO SCT018 WHT W (270°) 6.9mph 5°C 3°C
18/03/19 06:50 EGVP 180650Z 28007KT CAVOK 04/02 Q1020 BLU W (280°) 8.1mph 4°C 2°C
18/03/19 05:50 EGVP 180550Z 28007KT CAVOK 04/02 Q1019 BLU W (280°) 8.1mph 4°C 2°C
18/03/19 04:50 EGVP 180450Z AUTO 29007KT 9999 // SCT170/// 04/02 Q1019 WNW (290°) 8.1mph 4°C 2°C
18/03/19 03:50 EGVP 180350Z AUTO 29007KT 9999 // BKN170/// 04/02 Q1018 WNW (290°) 8.1mph 4°C 2°C
18/03/19 02:50 EGVP 180250Z AUTO 27006KT 9999 // BKN190/// 03/02 Q1018 W (270°) 6.9mph 3°C 2°C
18/03/19 01:50 EGVP 180150Z AUTO 26005KT 9999 // NCD 04/02 Q1017 W (260°) 5.8mph 4°C 2°C
18/03/19 00:50 EGVP 180050Z AUTO 28007KT 9999 // NCD 04/03 Q1017 W (280°) 8.1mph 4°C 3°C
17/03/19 23:50 EGVP 172350Z AUTO 26007KT 9999 // NCD 04/02 Q1016 W (260°) 8.1mph 4°C 2°C
17/03/19 22:50 EGVP 172250Z AUTO 27009KT 9999 // NCD 05/02 Q1015 W (270°) 10.4mph 5°C 2°C
17/03/19 21:50 EGVP 172150Z AUTO 28009KT 9999 // FEW050/// 06/03 Q1014 W (280°) 10.4mph 6°C 3°C
17/03/19 20:50 EGVP 172050Z AUTO 27009KT 9999 // FEW050/// 06/03 Q1013 W (270°) 10.4mph 6°C 3°C
17/03/19 19:50 EGVP 171950Z AUTO 28010KT 9999 // BKN050/// 06/04 Q1012 W (280°) 11.5mph 6°C 4°C
17/03/19 18:50 EGVP 171850Z AUTO 27008KT 9999 // FEW060/// 06/03 Q1011 W (270°) 9.2mph 6°C 3°C
17/03/19 17:50 EGVP 171750Z AUTO 27013KT 9999 // FEW023/// BKN060/// 07/03 Q1010 W (270°) 15.0mph 7°C 3°C
17/03/19 16:50 EGVP 171650Z AUTO 27018KT 9999 // FEW050/// 07/01 Q1009 W (270°) 20.7mph 7°C 1°C
17/03/19 15:50 EGVP 171550Z AUTO 26019KT 9999 // FEW038/// 08/01 Q1009 W (260°) 21.9mph 8°C 1°C
17/03/19 14:50 EGVP 171450Z AUTO 27019KT 9999 // FEW042/// SCT140/// 08/M01 Q1008 W (270°) 21.9mph 8°C -1°C
17/03/19 13:50 EGVP 171350Z AUTO 28018KT 9999 // FEW044/// SCT050/// 09/M01 Q1007 W (280°) 20.7mph 9°C -1°C
17/03/19 12:50 EGVP 171250Z AUTO 28016KT 9999 // FEW042/// BKN050/// 08/M00 Q1007 W (280°) 18.4mph 8°C 0°C
17/03/19 11:50 EGVP 171150Z AUTO 28017KT 9999 // SCT050/// 08/M01 Q1007 W (280°) 19.6mph 8°C -1°C
17/03/19 10:50 EGVP 171050Z AUTO 28015KT 9999 // SCT038/// 07/M01 Q1006 W (280°) 17.3mph 7°C -1°C
17/03/19 09:50 EGVP 170950Z AUTO 28013KT 9999 // FEW022/// SCT028/// 06/01 Q1006 W (280°) 15.0mph 6°C 1°C
17/03/19 08:50 EGVP 170850Z AUTO 27013KT 9999 // FEW015/// SCT170/// 05/02 Q1005 W (270°) 15.0mph 5°C 2°C
17/03/19 07:50 EGVP 170750Z AUTO 27009KT 9999 // FEW150/// 04/02 Q1004 W (270°) 10.4mph 4°C 2°C
17/03/19 06:50 EGVP 170650Z AUTO 27009KT 9999 // BKN140/// 03/02 Q1003 W (270°) 10.4mph 3°C 2°C
17/03/19 05:50 EGVP 170550Z AUTO 26010KT 9999 // BKN140/// 04/02 Q1002 W (260°) 11.5mph 4°C 2°C
17/03/19 04:50 EGVP 170450Z AUTO 27009KT 9999 // NCD 04/02 Q1001 W (270°) 10.4mph 4°C 2°C
17/03/19 03:50 EGVP 170350Z AUTO 27011KT 9999 // FEW021/// 04/02 Q1000 W (270°) 12.7mph 4°C 2°C
17/03/19 02:50 EGVP 170250Z AUTO 26010KT 9999 // FEW021/// 05/02 Q0999 W (260°) 11.5mph 5°C 2°C
17/03/19 01:50 EGVP 170150Z AUTO 27011KT 9999 // SCT023/// 06/03 Q0999 W (270°) 12.7mph 6°C 3°C
17/03/19 00:50 EGVP 170050Z AUTO 28013KT 9999 // FEW020/// 06/04 Q0998 W (280°) 15.0mph 6°C 4°C
16/03/19 23:50 EGVP 162350Z AUTO 26011KT 9999 // FEW021/// 06/05 Q0997 W (260°) 12.7mph 6°C 5°C
16/03/19 22:50 EGVP 162250Z AUTO 26010KT 9999 // FEW070/// BKN110/// 07/05 Q0997 W (260°) 11.5mph 7°C 5°C
16/03/19 21:50 EGVP 162150Z AUTO 26013G23KT 9999 // BKN015/// SCT070/// 08/06 Q0996 W (260°) 15.0mph 26.5mph 8°C 6°C
16/03/19 20:50 EGVP 162050Z AUTO 25011KT 9999 // BKN045/// 08/07 Q0996 WSW (250°) 12.7mph 8°C 7°C
16/03/19 19:50 EGVP 161950Z AUTO 22018G29KT 6000 // BKN009/// BKN017/// 10/09 Q0996 SW (220°) 20.7mph 33.4mph 10°C 9°C
16/03/19 18:50 EGVP 161850Z AUTO 22019G31KT 4100 // BKN007/// BKN015/// 09/08 Q0996 SW (220°) 21.9mph 35.7mph 9°C 8°C
16/03/19 17:50 EGVP 161750Z AUTO 22021G33KT 8000 // BKN011/// BKN018/// 09/08 Q0997 SW (220°) 24.2mph 38.0mph 9°C 8°C
16/03/19 16:50 EGVP 161650Z AUTO 22025G38KT 9999 // OVC015/// 10/07 Q0998 SW (220°) 28.8mph 43.7mph 10°C 7°C
16/03/19 15:50 EGVP 161550Z AUTO 22027G45KT 9999 // OVC020/// 11/07 Q0999 SW (220°) 31.1mph 51.8mph 11°C 7°C
16/03/19 14:50 EGVP 161450Z AUTO 23022G36KT 9999 // BKN021/// 11/07 Q1000 SW (230°) 25.3mph 41.4mph 11°C 7°C
16/03/19 13:50 EGVP 161350Z AUTO 22023G43KT 9999 // SCT023/// SCT029/// BKN034/// 11/07 Q1001 SW (220°) 26.5mph 49.5mph 11°C 7°C
16/03/19 12:50 EGVP 161250Z AUTO 23019KT 9999 // FEW016/// BKN023/// 11/07 Q1002 SW (230°) 21.9mph 11°C 7°C
16/03/19 11:50 EGVP 161150Z AUTO 23019G30KT 9999 // FEW018/// SCT023/// BKN030/// 10/07 Q1004 SW (230°) 21.9mph 34.5mph 10°C 7°C
16/03/19 10:50 EGVP 161050Z AUTO 23017G28KT 9999 // SCT016/// BKN024/// 10/08 Q1004 SW (230°) 19.6mph 32.2mph 10°C 8°C
16/03/19 09:50 EGVP 160950Z AUTO 24016G26KT 9999 // OVC018/// 10/07 Q1005 WSW (240°) 18.4mph 29.9mph 10°C 7°C
16/03/19 08:50 EGVP 160850Z AUTO 24016KT 9999 // BKN023/// 10/07 Q1005 WSW (240°) 18.4mph 10°C 7°C
16/03/19 07:50 EGVP 160750Z AUTO 23015KT 9999 // BKN015/// 10/07 Q1005 SW (230°) 17.3mph 10°C 7°C
16/03/19 06:50 EGVP 160650Z AUTO 23016KT 9999 // BKN012/// SCT024/// 10/08 Q1006 SW (230°) 18.4mph 10°C 8°C
16/03/19 05:50 EGVP 160550Z AUTO 23016G28KT 9999 // SCT016/// BKN019/// BKN026/// 10/08 Q1006 SW (230°) 18.4mph 32.2mph 10°C 8°C
16/03/19 04:50 EGVP 160450Z AUTO 23016KT 9999 // OVC012/// 10/08 Q1007 SW (230°) 18.4mph 10°C 8°C
16/03/19 03:50 EGVP 160350Z AUTO 23015KT 9999 // BKN013/// BKN020/// 10/08 Q1008 SW (230°) 17.3mph 10°C 8°C
16/03/19 02:50 EGVP 160250Z AUTO 23016G26KT 9999 // BKN012/// BKN020/// 10/08 Q1008 SW (230°) 18.4mph 29.9mph 10°C 8°C
16/03/19 01:50 EGVP 160150Z AUTO 23014G24KT 9999 // SCT012/// SCT018/// BKN043/// 10/08 Q1009 SW (230°) 16.1mph 27.6mph 10°C 8°C
16/03/19 00:50 EGVP 160050Z AUTO 23013KT 9999 // FEW009/// BKN060/// 11/09 Q1010 SW (230°) 15.0mph 11°C 9°C
15/03/19 23:50 EGVP 152350Z AUTO 23011KT 9999 // BKN008/// BKN016/// 11/10 Q1010 SW (230°) 12.7mph 11°C 10°C
15/03/19 22:50 EGVP 152250Z AUTO 24010KT 9999 // BKN011/// 11/10 Q1011 WSW (240°) 11.5mph 11°C 10°C
15/03/19 21:50 EGVP 152150Z AUTO 24009KT 6000 // BKN006/// BKN012/// 10/10 Q1011 WSW (240°) 10.4mph 10°C 10°C
15/03/19 20:50 EGVP 152050Z AUTO 25008KT 9000 // SCT009/// BKN013/// 10/09 Q1011 WSW (250°) 9.2mph 10°C 9°C
15/03/19 19:50 EGVP 151950Z AUTO 26010KT 9000 // BKN007/// SCT014/// 10/09 Q1011 W (260°) 11.5mph 10°C 9°C
15/03/19 18:50 EGVP 151850Z AUTO 26010KT 5000 // OVC007/// 10/09 Q1010 W (260°) 11.5mph 10°C 9°C
15/03/19 17:50 EGVP 151750Z AUTO 27015KT 9999 // OVC010/// 11/09 Q1010 W (270°) 17.3mph 11°C 9°C
15/03/19 16:50 EGVP 151650Z AUTO 27017KT 9999 // BKN010/// 11/09 Q1009 W (270°) 19.6mph 11°C 9°C
15/03/19 15:50 EGVP 151550Z 27016G29KT 9999 FEW009 BKN012 12/10 Q1009 GRN W (270°) 18.4mph 33.4mph 12°C 10°C
15/03/19 15:19 EGVP 151519Z 27017KT 9999 -DZ BKN012 BKN021 12/10 Q1009 GRN TEMPO 4000 -RA GRN -DZ W (270°) 19.6mph 12°C 10°C
15/03/19 13:50 EGVP 151350Z 26014KT 9999 -DZ BKN014 BKN024 13/11 Q1009 GRN TEMPO 5000 -RADZ GRN -DZ W (260°) 16.1mph 13°C 11°C
15/03/19 12:50 EGVP 151250Z 26015KT 7000 -RADZ FEW007 BKN009 BKN015 12/11 Q1008 GRN TEMPO 4000 GRN -RA -DZ W (260°) 17.3mph 12°C 11°C
15/03/19 11:50 EGVP 151150Z 26016KT 5000 4000W -RADZ FEW006 SCT007 BKN014 12/11 Q1008 GRN TEMPO 3000 YLO1 -RA DZ W (260°) 18.4mph 12°C 11°C
15/03/19 10:50 EGVP 151050Z 26016KT 4000 -RADZ FEW006 SCT007 BKN011 12/11 Q1008 GRN BECMG 7000 -DZ GRN -RA -DZ W (260°) 18.4mph 12°C 11°C
15/03/19 10:07 EGVP 151007Z 25014KT 4000 -RADZ FEW008 SCT010 OVC012 12/10 Q1009 GRN BECMG 25018G28KT 9999 NSW GRN -RA -DZ WSW (250°) 16.1mph 12°C 10°C
15/03/19 09:29 EGVP 150929Z 26017KT 5000 -DZ BKN012 12/10 Q1009 GRN TEMPO 4000 -RADZ GRN -DZ W (260°) 19.6mph 12°C 10°C
15/03/19 08:50 EGVP 150850Z 25017KT 9999 -DZ BKN014 12/10 Q1008 GRN TEMPO 25020G30KT 5000 -RADZ GRN -DZ WSW (250°) 19.6mph 12°C 10°C
15/03/19 07:50 EGVP 150750Z 26015KT 9999 -DZ FEW011 BKN014 BKN024 11/10 Q1008 GRN TEMPO BKN015 WHT -DZ W (260°) 17.3mph 11°C 10°C
15/03/19 06:50 EGVP 150650Z 26014KT 8000 -DZ BKN009 BKN018 11/10 Q1008 GRN -DZ W (260°) 16.1mph 11°C 10°C
15/03/19 05:50 EGVP 150550Z 25014KT 7000 -DZ FEW010 BKN013 OVC017 11/10 Q1008 GRN -DZ WSW (250°) 16.1mph 11°C 10°C
15/03/19 04:50 EGVP 150450Z AUTO 26015G25KT 9999 // BKN012/// SCT020/// 11/09 Q1007 W (260°) 17.3mph 28.8mph 11°C 9°C
15/03/19 03:50 EGVP 150350Z AUTO 26018KT 9999 // BKN011/// 11/10 Q1007 W (260°) 20.7mph 11°C 10°C
15/03/19 02:50 EGVP 150250Z AUTO 26017KT 7000 // BKN009/// 11/10 Q1007 W (260°) 19.6mph 11°C 10°C
15/03/19 01:50 EGVP 150150Z AUTO 26016KT 3200 // BKN009/// BKN017/// 11/10 Q1007 W (260°) 18.4mph 11°C 10°C
15/03/19 00:50 EGVP 150050Z AUTO 25014KT 9999 // BKN009/// SCT021/// 11/10 Q1007 WSW (250°) 16.1mph 11°C 10°C
14/03/19 23:50 EGVP 142350Z AUTO 25012KT 3400 // SCT006/// SCT013/// BKN017/// 10/10 Q1008 WSW (250°) 13.8mph 10°C 10°C
14/03/19 22:50 EGVP 142250Z AUTO 23008KT 6000 // BKN004/// SCT011/// 10/09 Q1009 SW (230°) 9.2mph 10°C 9°C
14/03/19 22:21 EGVP 142221Z 24007KT 4000 -RADZ BKN005 OVC008 09/09 Q1009 YLO1 TEMPO 6000 FEW006 BKN008 GRN -RA -DZ WSW (240°) 8.1mph 9°C 9°C
14/03/19 21:30 EGVP 142130Z 25009KT 9999 SCT016 BKN028 10/08 Q1009 WHT BECMG BKN010 GRN WSW (250°) 10.4mph 10°C 8°C
14/03/19 20:50 EGVP 142050Z 26011KT 9999 -RA FEW020 BKN032 BKN150 10/07 Q1009 BLU BECMG BKN010 GRN -RA W (260°) 12.7mph 10°C 7°C
14/03/19 19:50 EGVP 141950Z 26009KT CAVOK 10/07 Q1009 BLU BECMG BKN010 GRN W (260°) 10.4mph 10°C 7°C
14/03/19 18:50 EGVP 141850Z 27010KT CAVOK 10/07 Q1009 BLU NOSIG W (270°) 11.5mph 10°C 7°C
14/03/19 17:50 EGVP 141750Z 28014KT 9999 FEW024 OVC220 11/06 Q1008 BLU NOSIG W (280°) 16.1mph 11°C 6°C
14/03/19 16:50 EGVP 141650Z 28017G28KT 9999 FEW022 OVC220 11/06 Q1007 BLU BECMG 26015KT BLU W (280°) 19.6mph 32.2mph 11°C 6°C
14/03/19 15:50 EGVP 141550Z 28018KT 9999 FEW025 OVC250 12/06 Q1007 BLU TEMPO 28017G27KT BLU W (280°) 20.7mph 12°C 6°C
14/03/19 14:50 EGVP 141450Z 28020G30KT 9999 FEW035 SCT250 BKN300 13/07 Q1006 BLU NOSIG W (280°) 23.0mph 34.5mph 13°C 7°C
14/03/19 13:50 EGVP 141350Z 28021KT 9999 FEW025 SCT250 BKN300 13/07 Q1005 BLU TEMPO 28020G30KT W (280°) 24.2mph 13°C 7°C
14/03/19 12:50 EGVP 141250Z 29026G36KT 9999 FEW027 BKN250 13/08 Q1004 BLU NOSIG WNW (290°) 29.9mph 41.4mph 13°C 8°C
14/03/19 11:50 EGVP 141150Z 28023G37KT 9999 -RA SCT017 SCT021 BKN050 12/09 Q1004 WHT TEMPO 5000 WHT -RA W (280°) 26.5mph 42.6mph 12°C 9°C
14/03/19 11:28 EGVP 141128Z 28024G37KT 9999 -RA FEW013 SCT016 BKN050 11/09 Q1004 WHT TEMPO 5000 RA -RA W (280°) 27.6mph 42.6mph 11°C 9°C
14/03/19 11:19 EGVP 141119Z 28024G40KT 5000 RA FEW012 BKN014 BKN050 11/09 Q1004 GRN TEMPO 4000 GRN RA W (280°) 27.6mph 46.0mph 11°C 9°C
14/03/19 09:50 EGVP 140950Z 28024G37KT 9999 -RA BKN014 BKN020 11/09 Q1004 GRN TEMPO BKN018 WHT -RA W (280°) 27.6mph 42.6mph 11°C 9°C
14/03/19 09:13 EGVP 140913Z 27020KT 9000 BR SCT010 BKN011 OVC018 10/09 Q1004 GRN TEMPO 29025G35KT 4000 RA GRN BR W (270°) 23.0mph 10°C 9°C
14/03/19 07:50 EGVP 140750Z 26019KT 9999 -RA BKN012 BKN016 09/08 Q1004 GRN TEMPO 5000 RA GRN -RA W (260°) 21.9mph 9°C 8°C
14/03/19 06:50 EGVP 140650Z 26018KT 9999 -RA BKN013 BKN016 09/07 Q1005 GRN -RA W (260°) 20.7mph 9°C 7°C
14/03/19 05:50 EGVP 140550Z 25016KT 9999 -RA FEW013 BKN015 BKN020 08/07 Q1006 WHT -RA WSW (250°) 18.4mph 8°C 7°C
14/03/19 04:50 EGVP 140450Z AUTO 24016G26KT 9999 // FEW016/// BKN024/// 08/06 Q1007 WSW (240°) 18.4mph 29.9mph 8°C 6°C
14/03/19 03:50 EGVP 140350Z AUTO 25016G26KT 9999 // SCT018/// BKN027/// 08/06 Q1009 WSW (250°) 18.4mph 29.9mph 8°C 6°C
14/03/19 02:50 EGVP 140250Z AUTO 25012KT 9999 // BKN023/// SCT033/// 07/06 Q1010 WSW (250°) 13.8mph 7°C 6°C
14/03/19 01:50 EGVP 140150Z AUTO 24011KT 9999 // SCT023/// SCT030/// 08/05 Q1012 WSW (240°) 12.7mph 8°C 5°C
14/03/19 00:50 EGVP 140050Z AUTO 24010KT 9999 // SCT024/// BKN070/// 08/04 Q1013 WSW (240°) 11.5mph 8°C 4°C
13/03/19 23:50 EGVP 132350Z 25010KT 9999 FEW022 BKN037 BKN080 08/04 Q1014 BLU TEMPO -SHRA SCT022 WHT WSW (250°) 11.5mph 8°C 4°C
13/03/19 22:50 EGVP 132250Z 26013KT 9999 SCT022 BKN035 BKN090 08/04 Q1014 WHT TEMPO FEW022 BLU W (260°) 15.0mph 8°C 4°C
13/03/19 21:50 EGVP 132150Z 26012KT 9999 FEW022 SCT100 BKN120 07/04 Q1015 BLU TEMPO SCT020 WHT W (260°) 13.8mph 7°C 4°C
13/03/19 20:50 EGVP 132050Z 27016KT CAVOK 08/04 Q1014 BLU NOSIG W (270°) 18.4mph 8°C 4°C
13/03/19 19:50 EGVP 131950Z 27015KT CAVOK 08/04 Q1015 BLU NOSIG W (270°) 17.3mph 8°C 4°C
13/03/19 18:50 EGVP 131850Z 27014KT CAVOK 08/04 Q1014 BLU NOSIG W (270°) 16.1mph 8°C 4°C
13/03/19 17:50 EGVP 131750Z 27011KT 9999 FEW045 BKN050 BKN250 09/03 Q1014 BLU NOSIG W (270°) 12.7mph 9°C 3°C
13/03/19 16:50 EGVP 131650Z 29013KT 9999 FEW040 BKN048 BKN250 10/00 Q1013 BLU NOSIG WNW (290°) 15.0mph 10°C 0°C
13/03/19 15:50 EGVP 131550Z 29015G27KT 9999 FEW040 BKN048 10/00 Q1013 BLU BECMG 29013KT BLU WNW (290°) 17.3mph 31.1mph 10°C 0°C
13/03/19 14:50 EGVP 131450Z 30018KT 9999 BKN040 BKN050 10/01 Q1012 BLU NOSIG WNW (300°) 20.7mph 10°C 1°C
13/03/19 13:50 EGVP 131350Z 29018G29KT 9999 BKN038 BKN050 10/02 Q1012 BLU BLU WNW (290°) 20.7mph 33.4mph 10°C 2°C
13/03/19 12:50 EGVP 131250Z 29020G30KT 9999 BKN033 BKN039 10/02 Q1011 BLU NOSIG WNW (290°) 23.0mph 34.5mph 10°C 2°C
13/03/19 11:50 EGVP 131150Z 29021G32KT 9999 BKN028 SCT032 09/02 Q1010 BLU NOSIG WNW (290°) 24.2mph 36.8mph 9°C 2°C
13/03/19 10:50 EGVP 131050Z 28022KT 9999 BKN028 SCT040 BKN048 09/03 Q1010 BLU NOSIG W (280°) 25.3mph 9°C 3°C
13/03/19 09:50 EGVP 130950Z 28024G36KT 9999 BKN030 09/03 Q1009 BLU NOSIG W (280°) 27.6mph 41.4mph 9°C 3°C
13/03/19 08:50 EGVP 130850Z 28022G32KT 9999 FEW025 08/03 Q1008 BLU NOSIG W (280°) 25.3mph 36.8mph 8°C 3°C